Time;durP1;ratioP1;P1;durP2;ratioP2;P2;SDS_P1;SDS_P2;PMS_P1;PMS_P2;Temp;Humidity;BMP_temperature;BMP_pressure;BME280_temperature;BME280_humidity;BME280_pressure;Samples;Min_cycle;Max_cycle;Signal;HPM_P1;HPM_P2
2022/02/11 00:02:18;;;;;;;8.10;6.83;;;;;;;4.13;82.14;99684.27;1700286;82;20938;-61
2022/02/11 00:07:17;;;;;;;8.70;7.33;;;;;;;4.16;82.35;99677.55;1704050;83;20979;-61
2022/02/11 00:09:43;;;;;;;8.50;6.97;;;;;;;4.16;82.43;99677.09;1702343;82;20920;-62
2022/02/11 00:12:10;;;;;;;8.77;7.77;;;;;;;4.17;82.46;99672.16;1699706;82;21048;-62
2022/02/11 00:14:51;;;;;;;9.43;8.53;;;;;;;4.16;82.48;99685.09;1696726;83;20930;-62
2022/02/11 00:17:07;;;;;;;10.83;9.13;;;;;;;4.16;82.58;99676.22;1694323;83;20880;-61
2022/02/11 00:19:34;;;;;;;8.83;7.97;;;;;;;4.14;82.69;99673.59;1699464;82;21413;-61
2022/02/11 00:22:00;;;;;;;10.83;7.83;;;;;;;4.14;82.69;99672.70;1697273;82;20995;-61
2022/02/11 00:24:27;;;;;;;9.40;7.23;;;;;;;4.13;82.65;99675.83;1694808;82;21281;-61
2022/02/11 00:27:23;;;;;;;8.17;6.90;;;;;;;4.11;82.67;99667.44;1697035;82;20895;-61
2022/02/11 00:34:46;;;;;;;8.90;7.80;;;;;;;4.09;82.88;99651.94;1696969;82;20923;-60
2022/02/11 00:37:11;;;;;;;13.40;8.90;;;;;;;4.09;82.93;99647.95;1693987;81;21133;-61
2022/02/11 01:03:57;;;;;;;11.93;10.55;;;;;;;4.03;82.86;99636.11;1696195;82;21117;-60
2022/02/11 01:06:17;;;;;;;14.27;10.13;;;;;;;4.00;82.83;99638.38;1694615;82;21254;-63
2022/02/11 01:08:44;;;;;;;15.20;9.90;;;;;;;4.01;82.80;99641.92;1696671;82;21023;-61
2022/02/11 01:11:16;;;;;;;12.60;10.07;;;;;;;3.99;82.69;99634.45;1697468;83;21066;-60
2022/02/11 01:13:39;;;;;;;12.83;9.07;;;;;;;3.98;82.63;99637.57;1695127;82;21129;-61
2022/02/11 01:16:11;;;;;;;10.40;8.33;;;;;;;3.97;82.60;99636.27;1696727;82;21536;-60
2022/02/11 01:18:34;;;;;;;11.00;8.63;;;;;;;3.97;82.58;99636.27;1696049;82;21330;-61
2022/02/11 01:21:08;;;;;;;11.77;8.40;;;;;;;3.97;82.58;99638.48;1698209;82;20954;-61
2022/02/11 01:29:50;;;;;;;12.07;9.70;;;;;;;3.97;82.41;99624.28;1696688;82;22750;-61
2022/02/11 01:33:59;;;;;;;8.63;7.77;;;;;;;3.97;82.21;99621.63;1698054;82;20987;-61
2022/02/11 01:36:26;;;;;;;8.97;7.83;;;;;;;3.98;82.10;99622.05;1698074;82;21441;-61
2022/02/11 01:52:50;;;;;;;7.92;6.97;;;;;;;3.93;81.63;99610.61;1696145;82;21085;-61
2022/02/11 02:11:20;;;;;;;8.03;7.23;;;;;;;3.89;81.17;99588.97;1697107;82;21086;-61
2022/02/11 02:27:21;;;;;;;8.50;6.50;;;;;;;3.91;80.75;99562.73;1848013;75;23014;-60
2022/02/11 02:56:50;;;;;;;8.10;5.93;;;;;;;3.98;79.73;99523.05;1754293;79;20901;-62
2022/02/11 03:15:37;;;;;;;7.65;5.30;;;;;;;3.97;79.03;99497.33;1743927;81;23905;-57
2022/02/11 03:31:30;;;;;;;8.87;5.97;;;;;;;3.97;78.99;99501.78;1737606;81;21551;-58
2022/02/11 03:51:16;;;;;;;5.87;4.55;;;;;;;3.96;77.89;99468.07;1738731;81;21085;-62
2022/02/11 03:58:59;;;;;;;6.13;5.03;;;;;;;3.87;77.74;99469.19;1735612;81;21168;-59
2022/02/11 04:55:38;;;;;;;10.57;6.57;;;;;;;3.49;77.86;99436.86;1743896;80;21144;-57
2022/02/11 05:00:14;;;;;;;7.03;5.55;;;;;;;3.50;77.89;99434.63;1747122;80;21731;-60
2022/02/11 05:02:48;;;;;;;5.93;5.17;;;;;;;3.51;77.92;99437.70;1748666;80;21636;-59
2022/02/11 05:05:15;;;;;;;7.62;6.30;;;;;;;3.53;77.88;99430.56;1745595;80;21264;-60
2022/02/11 05:07:41;;;;;;;15.60;7.23;;;;;;;3.56;77.90;99427.84;1749802;80;21216;-58
2022/02/11 05:10:09;;;;;;;7.27;6.23;;;;;;;3.58;77.83;99427.77;1752096;79;20984;-58
2022/02/11 05:12:37;;;;;;;7.60;6.70;;;;;;;3.58;77.79;99418.00;1696535;82;20886;-57
2022/02/11 05:15:09;;;;;;;9.37;6.97;;;;;;;3.59;77.76;99424.20;1735031;81;21080;-56
2022/02/11 05:17:40;;;;;;;9.33;7.07;;;;;;;3.60;77.71;99420.17;1739694;81;20886;-59
2022/02/11 05:20:08;;;;;;;7.87;5.73;;;;;;;3.61;77.64;99419.72;1736989;81;21080;-59
2022/02/11 05:22:36;;;;;;;6.43;5.57;;;;;;;3.62;77.58;99420.14;1733274;81;21597;-58
2022/02/11 05:25:03;;;;;;;13.03;6.23;;;;;;;3.62;77.55;99422.80;1735902;81;22033;-60
2022/02/11 05:27:29;;;;;;;7.57;5.77;;;;;;;3.64;77.52;99415.66;1740231;81;21547;-57
2022/02/11 05:29:55;;;;;;;8.83;6.63;;;;;;;3.65;77.47;99418.75;1739096;81;21307;-58
2022/02/11 05:32:22;;;;;;;10.30;6.70;;;;;;;3.68;77.43;99417.31;1737733;81;21072;-57
2022/02/11 05:34:48;;;;;;;7.50;5.83;;;;;;;3.70;77.37;99416.83;1740063;81;21093;-57
2022/02/11 05:37:15;;;;;;;8.57;6.60;;;;;;;3.72;77.26;99421.66;1741450;81;22163;-58
2022/02/11 05:39:41;;;;;;;7.47;6.77;;;;;;;3.71;77.20;99414.59;1740631;81;21743;-58
2022/02/11 05:42:08;;;;;;;11.50;7.13;;;;;;;3.71;77.11;99415.47;1739217;81;21159;-60
2022/02/11 05:44:34;;;;;;;6.77;5.77;;;;;;;3.74;77.05;99407.86;1738911;81;21072;-58
2022/02/11 05:47:01;;;;;;;9.00;5.27;;;;;;;3.75;76.99;99413.13;1743579;81;21072;-57
2022/02/11 05:49:27;;;;;;;7.40;6.27;;;;;;;3.79;76.94;99423.25;1742556;81;21120;-57
2022/02/11 05:51:53;;;;;;;10.60;9.03;;;;;;;3.85;76.83;99422.20;1739012;81;21103;-56
2022/02/11 05:54:20;;;;;;;15.77;12.03;;;;;;;3.89;76.71;99424.76;1736696;81;20926;-60
2022/02/11 05:56:46;;;;;;;17.00;11.03;;;;;;;3.92;76.53;99421.13;1740898;81;20965;-60
2022/02/11 05:59:13;;;;;;;13.87;10.80;;;;;;;3.95;76.39;99422.38;1744334;81;20929;-60
2022/02/11 06:01:39;;;;;;;12.83;10.60;;;;;;;3.96;76.27;99416.14;1745041;81;20975;-58
2022/02/11 06:04:06;;;;;;;12.13;10.20;;;;;;;3.99;76.16;99413.41;1740788;81;21593;-59
2022/02/11 06:06:32;;;;;;;11.47;7.17;;;;;;;3.99;76.02;99414.28;1744947;81;20966;-57
2022/02/11 06:09:00;;;;;;;9.07;6.53;;;;;;;4.00;75.92;99412.01;1747010;81;20957;-59
2022/02/11 06:11:29;;;;;;;6.33;5.67;;;;;;;4.03;75.81;99419.92;1738604;81;20929;-59
2022/02/11 06:13:56;;;;;;;5.47;4.90;;;;;;;4.05;75.74;99411.45;1699558;82;21571;-58
2022/02/11 06:16:23;;;;;;;7.50;5.77;;;;;;;4.07;75.63;99404.30;1715285;82;21336;-58
2022/02/11 06:18:50;;;;;;;6.40;5.27;;;;;;;4.12;75.50;99412.14;1718180;82;20883;-58
2022/02/11 06:21:16;;;;;;;5.90;4.80;;;;;;;4.15;75.35;99406.28;1738611;81;20954;-60
2022/02/11 06:23:44;;;;;;;9.03;5.97;;;;;;;4.19;75.25;99423.04;1739323;81;20988;-57
2022/02/11 06:26:10;;;;;;;5.73;4.80;;;;;;;4.21;75.13;99411.89;1749357;79;21404;-58
2022/02/11 06:28:37;;;;;;;5.77;4.87;;;;;;;4.23;75.07;99418.06;1742843;81;21414;-58
2022/02/11 06:31:03;;;;;;;5.23;4.70;;;;;;;4.25;74.98;99408.24;1744903;80;20913;-58
2022/02/11 06:33:30;;;;;;;5.97;3.80;;;;;;;4.28;74.96;99405.92;1740830;81;20964;-59
2022/02/11 06:35:57;;;;;;;4.73;4.23;;;;;;;4.31;74.89;99406.73;1742016;81;21024;-60
2022/02/11 06:41:04;;;;;;;9.83;5.63;;;;;;;4.42;74.82;99403.27;1826899;76;22018;-57
2022/02/11 06:43:31;;;;;;;7.23;4.13;;;;;;;4.43;74.76;99409.02;1803144;77;20993;-58
2022/02/11 06:45:58;;;;;;;4.10;2.97;;;;;;;4.48;74.63;99409.78;1800037;77;21877;-59
2022/02/11 06:48:25;;;;;;;3.67;3.37;;;;;;;4.50;74.57;99402.62;1748631;80;20899;-60
2022/02/11 06:50:52;;;;;;;5.33;3.83;;;;;;;4.54;74.45;99405.59;1749000;80;20875;-57
2022/02/11 06:53:18;;;;;;;5.50;3.70;;;;;;;4.57;74.38;99400.64;1752007;79;21063;-59
2022/02/11 06:55:44;;;;;;;5.67;3.43;;;;;;;4.62;74.31;99405.36;1748134;79;21036;-58
2022/02/11 06:58:11;;;;;;;4.37;3.23;;;;;;;4.67;74.19;99398.13;1726263;81;21464;-61
2022/02/11 07:00:39;;;;;;;5.67;3.57;;;;;;;4.72;74.13;99394.84;1728996;81;20986;-58
2022/02/11 07:03:05;;;;;;;4.80;3.57;;;;;;;4.77;74.05;99399.56;1726260;81;21543;-57
2022/02/11 07:05:34;;;;;;;4.17;3.27;;;;;;;4.81;73.97;99390.56;1726245;81;21539;-59
2022/02/11 07:08:01;;;;;;;5.77;3.60;;;;;;;4.86;73.89;99392.62;1703226;81;21464;-60
2022/02/11 07:10:27;;;;;;;5.57;4.47;;;;;;;4.91;73.84;99392.50;1732541;81;21074;-58
2022/02/11 07:12:55;;;;;;;7.57;4.60;;;;;;;4.95;73.68;99410.12;1731319;81;20919;-59
2022/02/11 07:15:21;;;;;;;3.67;2.70;;;;;;;4.99;73.58;99409.13;1732587;81;20970;-58
2022/02/11 07:17:48;;;;;;;2.90;2.10;;;;;;;5.03;73.45;99406.77;1731027;81;21009;-59
2022/02/11 07:20:14;;;;;;;8.37;2.97;;;;;;;5.06;73.35;99409.34;1726434;81;21108;-57
2022/02/11 07:22:41;;;;;;;3.67;2.87;;;;;;;5.13;73.23;99412.23;1729807;81;22744;-58
2022/02/11 07:25:12;;;;;;;3.33;3.07;;;;;;;5.18;73.15;99416.98;1734054;81;20985;-59
2022/02/11 07:27:40;;;;;;;6.83;3.00;;;;;;;5.23;73.06;99415.02;1725500;81;21455;-59
2022/02/11 07:30:07;;;;;;;4.93;3.17;;;;;;;5.30;72.99;99413.02;1729242;81;22330;-57
2022/02/11 07:32:34;;;;;;;9.20;4.27;;;;;;;5.35;72.81;99410.22;1725828;81;20953;-61
2022/02/11 07:35:02;;;;;;;4.50;4.03;;;;;;;5.39;72.57;99409.19;1726218;81;21130;-58
2022/02/11 07:37:31;;;;;;;6.87;3.60;;;;;;;5.42;72.30;99412.64;1776771;79;21550;-58
2022/02/11 07:39:58;;;;;;;4.83;3.83;;;;;;;5.47;72.24;99412.02;1777017;79;21467;-58
2022/02/11 07:42:29;;;;;;;7.13;3.87;;;;;;;5.53;72.13;99409.13;1778387;79;21356;-61
2022/02/11 07:44:57;;;;;;;7.40;4.50;;;;;;;5.61;72.08;99413.75;1776122;79;21082;-58
2022/02/11 07:47:26;;;;;;;4.33;3.30;;;;;;;5.71;71.84;99415.66;1777114;79;21138;-59
2022/02/11 07:49:57;;;;;;;4.63;3.73;;;;;;;5.79;71.73;99409.59;1772746;79;20941;-62
2022/02/11 07:52:23;;;;;;;7.73;4.50;;;;;;;5.86;71.34;99400.92;1775658;79;21036;-60
2022/02/11 07:54:50;;;;;;;7.17;4.73;;;;;;;5.92;71.30;99410.09;1773111;79;21406;-58
2022/02/11 07:57:17;;;;;;;4.50;3.73;;;;;;;5.97;70.93;99414.79;1772878;79;21080;-60
2022/02/11 07:59:44;;;;;;;5.57;3.23;;;;;;;5.99;70.86;99411.15;1774050;79;21515;-57
2022/02/11 08:02:11;;;;;;;4.57;3.27;;;;;;;6.05;70.81;99418.94;1777532;79;21185;-60
2022/02/11 08:04:38;;;;;;;5.50;4.75;;;;;;;6.11;70.62;99401.84;1773221;79;21059;-62
2022/02/11 08:07:05;;;;;;;4.03;3.40;;;;;;;6.14;70.50;99415.06;1773759;79;21096;-61
2022/02/11 08:09:31;;;;;;;4.07;3.67;;;;;;;6.18;70.41;99406.49;1772205;79;21058;-59
2022/02/11 08:11:58;;;;;;;7.30;4.40;;;;;;;6.19;70.31;99399.77;1773237;79;21136;-60
2022/02/11 08:14:25;;;;;;;5.80;4.27;;;;;;;6.20;70.21;99408.66;1777000;79;21709;-58
2022/02/11 08:16:52;;;;;;;7.07;5.07;;;;;;;6.16;70.04;99409.22;1774958;79;20909;-56
2022/02/11 08:19:19;;;;;;;4.10;3.70;;;;;;;6.15;70.06;99411.94;1775432;79;20985;-56
2022/02/11 08:21:46;;;;;;;5.33;3.87;;;;;;;6.13;70.03;99416.45;1776653;79;21495;-57
2022/02/11 08:24:13;;;;;;;4.47;3.70;;;;;;;6.12;70.01;99422.76;1775217;79;21965;-57
2022/02/11 08:26:39;;;;;;;5.23;4.70;;;;;;;6.11;69.94;99415.66;1774467;79;21088;-58
2022/02/11 08:29:08;;;;;;;5.57;4.10;;;;;;;6.12;70.05;99420.08;1774037;79;21683;-57
2022/02/11 08:31:35;;;;;;;4.97;4.43;;;;;;;6.11;69.95;99426.35;1773968;79;21403;-57
2022/02/11 08:34:02;;;;;;;7.00;5.90;;;;;;;6.10;69.97;99423.27;1775665;79;20956;-59
2022/02/11 08:36:29;;;;;;;6.20;5.53;;;;;;;6.07;69.99;99427.78;1737627;80;21590;-58
2022/02/11 08:38:56;;;;;;;5.83;5.33;;;;;;;6.06;70.04;99427.37;1740753;80;21088;-58
2022/02/11 08:41:25;;;;;;;6.57;4.80;;;;;;;6.08;70.13;99436.22;1707880;82;21465;-58
2022/02/11 08:43:51;;;;;;;5.33;4.10;;;;;;;6.11;70.13;99433.03;1725688;81;21128;-57
2022/02/11 08:46:17;;;;;;;6.13;3.90;;;;;;;6.15;70.23;99427.51;1727555;81;21448;-59
2022/02/11 08:48:43;;;;;;;7.87;6.33;;;;;;;6.23;70.24;99441.47;1775436;79;21453;-58
2022/02/11 08:51:10;;;;;;;6.17;5.57;;;;;;;6.27;70.16;99443.58;1775209;79;21517;-59
2022/02/11 08:53:36;;;;;;;7.40;6.27;;;;;;;6.30;70.02;99447.00;1777272;79;21029;-57
2022/02/11 08:56:05;;;;;;;6.47;5.33;;;;;;;6.30;69.89;99448.34;1774650;79;21052;-57
2022/02/11 08:58:32;;;;;;;8.13;7.07;;;;;;;6.33;69.88;99444.23;1775145;79;21477;-57
2022/02/11 09:00:59;;;;;;;7.37;6.50;;;;;;;6.34;69.86;99451.79;1778178;79;21728;-57
2022/02/11 09:03:25;;;;;;;7.83;6.00;;;;;;;6.31;69.81;99451.88;1775387;79;20873;-57
2022/02/11 09:05:52;;;;;;;8.87;6.37;;;;;;;6.27;69.79;99456.48;1775574;79;20899;-56
2022/02/11 09:08:18;;;;;;;6.80;6.10;;;;;;;6.25;69.85;99454.78;1778579;79;21447;-58
2022/02/11 09:10:47;;;;;;;6.83;5.77;;;;;;;6.23;69.93;99457.97;1776006;79;20973;-58
2022/02/11 09:13:14;;;;;;;14.70;6.90;;;;;;;6.24;69.98;99458.38;1779345;79;21465;-57
2022/02/11 09:15:41;;;;;;;7.83;7.03;;;;;;;6.22;70.03;99454.42;1773815;79;21413;-55
2022/02/11 09:18:07;;;;;;;7.77;6.43;;;;;;;6.21;70.05;99455.84;1775501;79;22220;-59
2022/02/11 09:20:34;;;;;;;7.43;6.23;;;;;;;6.21;70.09;99455.84;1774270;79;21495;-57
2022/02/11 09:23:00;;;;;;;10.03;7.30;;;;;;;6.20;70.15;99461.64;1782600;79;21455;-56
2022/02/11 09:25:29;;;;;;;10.10;7.20;;;;;;;6.21;70.17;99463.86;1778583;79;21104;-57
2022/02/11 09:27:54;;;;;;;8.63;6.33;;;;;;;6.20;70.20;99456.77;1779172;79;20887;-56
2022/02/11 09:30:22;;;;;;;8.20;7.07;;;;;;;6.20;70.26;99460.77;1778114;79;21305;-55
2022/02/11 09:32:52;;;;;;;11.10;7.07;;;;;;;6.20;70.29;99454.97;1784529;79;21811;-56
2022/02/11 09:35:19;;;;;;;9.63;6.77;;;;;;;6.23;70.41;99455.30;1775537;79;21428;-58
2022/02/11 09:37:45;;;;;;;8.63;6.40;;;;;;;6.25;70.42;99455.66;1772906;79;22168;-56
2022/02/11 09:40:14;;;;;;;9.20;6.77;;;;;;;6.33;70.47;99460.73;1775631;79;21124;-57
2022/02/11 09:42:40;;;;;;;8.35;7.45;;;;;;;6.40;70.34;99463.59;1779971;78;21057;-56
2022/02/11 09:45:08;;;;;;;9.48;6.78;;;;;;;6.44;70.36;99462.11;1779558;79;21403;-56
2022/02/11 09:47:35;;;;;;;7.53;6.73;;;;;;;6.47;70.36;99470.45;1780246;78;20945;-57
2022/02/11 09:50:01;;;;;;;12.23;9.20;;;;;;;6.48;70.26;99476.68;1781691;80;21132;-58
2022/02/11 09:52:28;;;;;;;15.03;9.10;;;;;;;6.45;70.19;99468.33;1777073;79;21901;-56
2022/02/11 09:55:31;;;;;;;16.50;10.03;;;;;;;6.43;70.23;99471.05;1779016;78;21490;-58
2022/02/11 09:57:23;;;;;;;11.47;7.73;;;;;;;6.42;70.33;99473.77;1772988;78;21056;-59
2022/02/11 09:59:49;;;;;;;7.80;6.53;;;;;;;6.39;70.38;99473.87;1777457;79;21524;-59
2022/02/11 10:02:16;;;;;;;8.00;7.20;;;;;;;6.37;70.49;99481.97;1780084;78;21813;-56
2022/02/11 10:04:55;;;;;;;9.37;7.93;;;;;;;6.34;70.58;99468.70;1774670;78;21197;-57
2022/02/11 10:07:22;;;;;;;8.98;7.90;;;;;;;6.33;70.74;99480.78;1781379;80;21546;-58
2022/02/11 10:09:48;;;;;;;10.27;8.03;;;;;;;6.34;70.83;99485.20;1777646;80;21530;-57
2022/02/11 10:12:15;;;;;;;10.00;8.53;;;;;;;6.35;70.94;99483.81;1758928;79;21072;-55
2022/02/11 10:14:43;;;;;;;11.13;8.53;;;;;;;6.36;70.97;99488.70;1764519;79;21545;-56
2022/02/11 10:17:16;;;;;;;11.97;9.37;;;;;;;6.36;71.04;99498.06;1757743;79;21010;-58
2022/02/11 10:19:55;;;;;;;12.80;8.90;;;;;;;6.34;71.13;99490.55;1759991;79;21073;-56
2022/02/11 10:22:26;;;;;;;11.30;8.43;;;;;;;6.26;71.33;99500.17;1780671;79;21447;-57
2022/02/11 10:24:55;;;;;;;9.23;7.57;;;;;;;6.21;71.50;99503.95;1779749;80;21036;-57
2022/02/11 10:27:27;;;;;;;9.47;8.27;;;;;;;6.20;71.76;99504.87;1778381;79;21092;-58
2022/02/11 10:29:58;;;;;;;10.00;7.80;;;;;;;6.18;71.92;99502.70;1781270;79;20906;-56
2022/02/11 10:32:40;;;;;;;10.53;9.27;;;;;;;6.18;72.08;99508.05;1781263;79;21019;-58
2022/02/11 10:35:07;;;;;;;11.10;9.87;;;;;;;6.18;72.24;99509.38;1779998;79;21101;-58
2022/02/11 10:37:34;;;;;;;14.27;11.60;;;;;;;6.17;72.37;99504.50;1782022;78;20918;-60
2022/02/11 10:40:00;;;;;;;13.53;10.27;;;;;;;6.19;72.48;99511.14;1781565;78;21217;-57
2022/02/11 10:42:44;;;;;;;11.73;9.37;;;;;;;6.18;72.56;99516.06;1741805;81;21052;-57
2022/02/11 10:45:37;;;;;;;11.83;8.70;;;;;;;6.17;72.72;99519.66;1746276;80;21100;-56
2022/02/11 10:48:23;;;;;;;11.47;8.87;;;;;;;6.19;72.81;99504.45;1745603;80;21579;-56
2022/02/11 10:50:56;;;;;;;12.37;8.17;;;;;;;6.23;72.88;99510.09;1748526;80;21061;-56
2022/02/11 10:53:28;;;;;;;11.15;8.00;;;;;;;6.27;72.95;99511.74;1725143;81;21117;-56
2022/02/11 10:55:59;;;;;;;12.23;9.00;;;;;;;6.31;72.94;99512.91;1740051;80;21168;-59
2022/02/11 10:58:28;;;;;;;15.05;10.55;;;;;;;6.37;72.90;99522.53;1744015;81;21085;-58
2022/02/11 11:00:58;;;;;;;9.57;8.20;;;;;;;6.38;72.82;99522.95;1734761;81;21056;-56
2022/02/11 11:03:23;;;;;;;12.43;8.90;;;;;;;6.39;72.78;99522.86;1728349;81;21118;-57
2022/02/11 11:05:50;;;;;;;10.73;9.63;;;;;;;6.36;72.74;99518.98;1726338;81;21914;-55
2022/02/11 11:08:16;;;;;;;13.70;8.40;;;;;;;6.36;72.78;99527.47;1773019;79;21089;-56
2022/02/11 11:10:46;;;;;;;11.47;8.30;;;;;;;6.36;72.85;99534.15;1773901;79;21372;-58
2022/02/11 11:13:15;;;;;;;9.57;7.70;;;;;;;6.35;72.87;99524.38;1773824;79;21005;-58
2022/02/11 11:15:44;;;;;;;9.73;7.90;;;;;;;6.32;72.88;99521.80;1776866;79;21030;-59
2022/02/11 11:18:11;;;;;;;8.63;7.17;;;;;;;6.31;72.99;99522.72;1773031;79;21102;-56
2022/02/11 11:20:39;;;;;;;9.47;7.57;;;;;;;6.34;73.07;99532.86;1775257;79;21060;-58
2022/02/11 11:23:26;;;;;;;10.73;7.97;;;;;;;6.39;73.06;99528.67;1769744;79;21679;-57
2022/02/11 11:26:03;;;;;;;11.87;8.50;;;;;;;6.41;73.07;99530.38;1775711;79;21637;-55
2022/02/11 11:28:52;;;;;;;10.03;8.60;;;;;;;6.48;73.02;99531.03;1739091;80;21363;-55
2022/02/11 11:31:27;;;;;;;17.33;9.03;;;;;;;6.53;72.97;99534.89;1739198;80;21116;-56
2022/02/11 11:34:18;;;;;;;10.20;8.63;;;;;;;6.54;72.78;99538.86;1779394;79;21322;-58
2022/02/11 11:37:00;;;;;;;9.37;8.00;;;;;;;6.56;72.77;99534.77;1769305;79;21046;-56
2022/02/11 11:39:24;;;;;;;10.07;8.33;;;;;;;6.60;72.73;99537.76;1775403;79;20923;-57
2022/02/11 11:42:07;;;;;;;8.47;6.97;;;;;;;6.64;72.67;99530.89;1753239;79;21621;-56
2022/02/11 11:44:49;;;;;;;10.10;7.67;;;;;;;6.70;72.59;99527.14;1742131;81;22119;-55
2022/02/11 11:47:33;;;;;;;10.10;7.83;;;;;;;6.74;72.32;99527.42;1734772;81;21455;-56
2022/02/11 11:49:59;;;;;;;8.33;7.27;;;;;;;6.72;72.14;99528.81;1738400;81;21092;-59
2022/02/11 11:52:44;;;;;;;12.10;7.40;;;;;;;6.68;72.01;99530.33;1739719;81;21030;-57
2022/02/11 11:55:20;;;;;;;7.10;6.12;;;;;;;6.64;71.85;99527.34;1734443;81;21851;-55
2022/02/11 11:57:46;;;;;;;7.60;5.93;;;;;;;6.57;71.81;99531.17;1737947;80;21760;-56
2022/02/11 12:00:14;;;;;;;6.80;5.93;;;;;;;6.53;71.83;99538.91;1737447;81;20918;-58
2022/02/11 12:02:44;;;;;;;7.57;5.73;;;;;;;6.52;71.94;99536.70;1738925;81;21486;-55
2022/02/11 12:05:11;;;;;;;7.87;6.30;;;;;;;6.52;72.00;99534.02;1709776;81;21515;-58
2022/02/11 12:07:39;;;;;;;8.00;6.87;;;;;;;6.52;72.08;99540.70;1737415;81;21531;-56
2022/02/11 12:10:07;;;;;;;11.10;7.97;;;;;;;6.54;72.12;99536.19;1739614;80;21356;-58
2022/02/11 12:12:36;;;;;;;8.27;6.80;;;;;;;6.54;72.11;99542.87;1740461;81;20965;-55
2022/02/11 12:15:06;;;;;;;9.23;7.43;;;;;;;6.54;72.19;99539.32;1737327;81;20918;-56
2022/02/11 12:17:33;;;;;;;10.07;6.93;;;;;;;6.54;72.19;99546.00;1739355;81;21373;-55
2022/02/11 12:19:59;;;;;;;10.60;7.23;;;;;;;6.54;72.19;99548.22;1737277;81;21408;-58
2022/02/11 12:22:28;;;;;;;7.50;5.90;;;;;;;6.56;71.92;99549.47;1740957;80;21079;-59
2022/02/11 12:27:48;;;;;;;7.17;6.10;;;;;;;6.60;71.80;99560.49;1737323;80;20909;-57
2022/02/11 12:30:22;;;;;;;6.50;5.73;;;;;;;6.66;71.58;99561.14;1743779;81;21401;-56
2022/02/11 12:32:59;;;;;;;6.10;5.00;;;;;;;6.71;71.24;99568.56;1735391;80;20951;-55
2022/02/11 12:35:32;;;;;;;8.97;5.83;;;;;;;6.73;70.91;99559.11;1738035;81;21100;-57
2022/02/11 12:38:02;;;;;;;7.50;5.53;;;;;;;6.75;70.73;99559.48;1733611;81;21000;-55
2022/02/11 12:40:30;;;;;;;6.20;5.57;;;;;;;6.76;70.35;99561.69;1731369;81;21724;-56
2022/02/11 12:43:05;;;;;;;5.60;4.63;;;;;;;6.75;70.16;99562.16;1773986;79;20867;-59
2022/02/11 12:45:38;;;;;;;4.63;4.17;;;;;;;6.75;69.84;99558.60;1746460;79;20914;-56
2022/02/11 12:48:09;;;;;;;5.37;3.40;;;;;;;6.73;69.48;99566.67;1713556;81;21131;-56
2022/02/11 12:50:38;;;;;;;4.80;3.50;;;;;;;6.69;69.12;99562.38;1725004;81;21040;-56
2022/02/11 12:53:07;;;;;;;4.07;3.50;;;;;;;6.70;68.97;99564.59;1722519;81;21082;-56
2022/02/11 12:55:38;;;;;;;4.00;3.17;;;;;;;6.72;68.96;99566.27;1724762;81;21116;-56
2022/02/11 12:58:08;;;;;;;3.67;2.97;;;;;;;6.76;68.55;99570.59;1722558;81;21076;-54
2022/02/11 13:00:39;;;;;;;4.33;2.50;;;;;;;6.81;68.50;99563.72;1724809;82;21617;-56
2022/02/11 13:03:07;;;;;;;4.17;3.60;;;;;;;6.86;68.05;99564.91;1728118;81;20943;-58
2022/02/11 13:05:42;;;;;;;3.33;3.03;;;;;;;6.82;67.92;99569.02;1722021;81;21414;-54
2022/02/11 13:08:10;;;;;;;5.00;3.53;;;;;;;6.82;68.00;99566.34;1697097;82;21517;-54
2022/02/11 13:10:39;;;;;;;4.23;2.90;;;;;;;6.79;67.63;99558.45;1726926;81;21407;-54
2022/02/11 13:13:17;;;;;;;4.50;3.17;;;;;;;6.75;67.74;99563.48;1725729;81;21122;-56
2022/02/11 13:15:45;;;;;;;3.92;2.50;;;;;;;6.71;67.75;99563.20;1722107;81;21069;-56
2022/02/11 13:18:19;;;;;;;4.03;2.70;;;;;;;6.68;67.57;99565.10;1723317;81;21125;-56
2022/02/11 13:20:51;;;;;;;2.70;2.17;;;;;;;6.64;67.58;99563.45;1724394;81;21460;-56
2022/02/11 13:23:22;;;;;;;2.58;2.35;;;;;;;6.62;67.33;99567.55;1724515;82;21498;-57
2022/02/11 13:25:49;;;;;;;2.83;1.75;;;;;;;6.62;67.09;99576.03;1725008;81;21109;-55
2022/02/11 13:28:17;;;;;;;2.70;1.37;;;;;;;6.62;66.88;99578.23;1724203;81;21061;-56
2022/02/11 13:30:48;;;;;;;1.55;1.35;;;;;;;6.65;66.54;99579.45;1726215;81;21063;-58
2022/02/11 13:33:31;;;;;;;2.12;0.90;;;;;;;6.67;66.13;99585.62;1773307;79;20954;-58
2022/02/11 13:36:00;;;;;;;1.90;1.10;;;;;;;6.66;65.78;99589.22;1779073;79;21070;-57
2022/02/11 13:38:33;;;;;;;1.50;0.90;;;;;;;6.67;65.55;99594.11;1778312;79;21094;-57
2022/02/11 13:41:03;;;;;;;1.12;0.90;;;;;;;6.64;65.40;99589.73;1775299;79;21011;-58
2022/02/11 13:43:54;;;;;;;0.90;0.80;;;;;;;6.63;65.14;99596.03;1773050;79;21041;-56
2022/02/11 13:46:40;;;;;;;0.85;0.70;;;;;;;6.57;64.81;99584.19;1779136;79;21301;-55
2022/02/11 13:49:13;;;;;;;1.10;0.80;;;;;;;6.53;64.66;99581.69;1776928;79;21415;-56
2022/02/11 13:51:40;;;;;;;0.93;0.80;;;;;;;6.46;64.60;99583.70;1775002;79;21811;-54
2022/02/11 13:54:14;;;;;;;0.88;0.60;;;;;;;6.40;64.34;99583.44;1778246;79;21044;-58
2022/02/11 13:56:47;;;;;;;0.93;0.60;;;;;;;6.36;64.31;99587.61;1775793;79;20967;-56
2022/02/11 13:59:30;;;;;;;1.32;0.60;;;;;;;6.30;64.13;99585.12;1780877;79;20973;-54
2022/02/11 14:02:05;;;;;;;0.80;0.60;;;;;;;6.25;64.21;99587.97;1777283;79;21590;-55
2022/02/11 14:04:33;;;;;;;0.90;0.60;;;;;;;6.21;64.14;99588.14;1748468;79;21062;-56
2022/02/11 14:07:01;;;;;;;1.23;0.70;;;;;;;6.18;64.00;99590.90;1774798;79;21090;-54
2022/02/11 14:09:35;;;;;;;1.00;0.70;;;;;;;6.15;64.10;99594.99;1773045;79;21056;-56
2022/02/11 14:12:16;;;;;;;0.90;0.57;;;;;;;6.12;64.25;99595.12;1772861;79;21043;-56
2022/02/11 14:14:56;;;;;;;0.70;0.50;;;;;;;6.09;64.21;99606.77;1770614;79;21075;-58
2022/02/11 14:17:23;;;;;;;0.70;0.50;;;;;;;6.06;64.24;99609.06;1774031;79;21776;-57
2022/02/11 14:19:50;;;;;;;0.70;0.50;;;;;;;6.02;64.19;99610.11;1778348;79;21117;-55
2022/02/11 14:22:17;;;;;;;0.70;0.43;;;;;;;5.97;64.13;99605.36;1777490;79;21045;-55
2022/02/11 14:24:44;;;;;;;0.70;0.50;;;;;;;5.93;64.20;99613.07;1775599;79;21025;-56
2022/02/11 14:27:10;;;;;;;2.60;0.70;;;;;;;5.91;64.27;99617.58;1777216;79;21091;-54
2022/02/11 14:29:37;;;;;;;1.70;1.20;;;;;;;5.87;64.33;99613.70;1778415;79;21164;-57
2022/02/11 14:32:04;;;;;;;1.60;0.50;;;;;;;5.84;64.44;99621.80;1775879;79;21592;-58
2022/02/11 14:34:31;;;;;;;1.37;0.60;;;;;;;5.80;64.48;99627.68;1779065;79;21044;-54
2022/02/11 14:36:57;;;;;;;2.30;0.50;;;;;;;5.78;64.59;99628.21;1774130;79;21537;-55
2022/02/11 14:39:24;;;;;;;1.53;0.53;;;;;;;5.78;64.71;99630.01;1776726;79;21459;-54
2022/02/11 14:44:08;;;;;;;1.10;0.50;;;;;;;5.81;64.78;99638.78;1787977;78;23179;-56
2022/02/11 14:46:35;;;;;;;1.40;0.60;;;;;;;5.77;64.84;99644.28;1762604;79;21033;-57
2022/02/11 14:49:01;;;;;;;2.83;0.50;;;;;;;5.79;64.88;99644.63;1766032;79;22295;-56
2022/02/11 14:51:28;;;;;;;0.87;0.70;;;;;;;5.81;64.88;99645.46;1766068;79;20914;-57
2022/02/11 14:53:54;;;;;;;0.70;0.40;;;;;;;5.83;64.80;99638.73;1767538;79;21092;-59
2022/02/11 14:56:20;;;;;;;1.17;0.50;;;;;;;5.83;64.70;99650.77;1753457;79;21069;-57
2022/02/11 14:58:47;;;;;;;0.70;0.60;;;;;;;5.80;64.60;99653.05;1740635;80;21317;-56
2022/02/11 15:01:13;;;;;;;0.80;0.60;;;;;;;5.77;64.62;99650.95;1740230;80;21106;-57
2022/02/11 15:03:40;;;;;;;1.20;0.80;;;;;;;5.73;64.61;99658.17;1742677;80;20989;-57
2022/02/11 15:06:06;;;;;;;0.83;0.60;;;;;;;5.68;64.62;99662.33;1743886;80;21199;-58
2022/02/11 15:08:32;;;;;;;1.30;0.70;;;;;;;5.63;64.60;99670.05;1741534;80;21045;-57
2022/02/11 15:11:00;;;;;;;1.30;0.83;;;;;;;5.56;64.68;99674.70;1742648;80;21049;-58
2022/02/11 15:13:27;;;;;;;1.83;0.90;;;;;;;5.49;64.73;99678.47;1654836;83;21539;-57
2022/02/11 15:15:55;;;;;;;1.10;0.70;;;;;;;5.42;64.85;99688.91;1679884;83;20954;-57
2022/02/11 15:18:21;;;;;;;2.23;1.47;;;;;;;5.36;64.99;99684.22;1689826;82;22313;-59
2022/02/11 15:20:48;;;;;;;1.80;1.17;;;;;;;5.29;65.16;99693.70;1694424;82;21508;-59
2022/02/11 15:23:14;;;;;;;1.70;0.93;;;;;;;5.25;65.37;99691.18;1696013;82;20985;-58
2022/02/11 15:25:41;;;;;;;1.83;1.10;;;;;;;5.18;65.64;99684.27;1692547;82;21166;-59
2022/02/11 15:28:07;;;;;;;1.40;1.00;;;;;;;5.13;65.82;99698.17;1690941;82;20993;-59
2022/02/11 15:30:33;;;;;;;1.40;1.00;;;;;;;5.07;65.98;99697.02;1695838;82;21069;-59
2022/02/11 15:33:01;;;;;;;1.77;1.17;;;;;;;4.98;66.15;99695.47;1690175;82;21118;-59
2022/02/11 15:35:29;;;;;;;2.73;1.37;;;;;;;4.91;66.29;99703.22;1689375;82;20922;-59